Ashland, Nebraska
Current Conditions -  °F | °C
As of 4:35 PM on Monday 24 Nov 2014 (Local Time) from KMLE Reporting Station
Clear Clear  
Wind Chill: 25°   Ceiling: Unl
Heat Index: 36°   Visibility: 10mi
Dew Point: 16°   Wind: 18mph
Humidity: 44%   Direction: 310°NW
Pressure: 29.88"   Gusts: 25mph
Location:  41.04°N, 96.37°W
Report Text: KMLE 242235Z AUTO 31016G22KT 10SM CLR 02/M09 A2988 RMK AO2 T00201091
Loading
Personal Weather Stations






























Interactive Weather Map New forecast layout! Learn more

10-Day Weather Forecast

Advertisements
Track Severe Weather on mobile